Time;durP1;ratioP1;P1;durP2;ratioP2;P2;SDS_P1;SDS_P2;PMS_P1;PMS_P2;Temp;Humidity;BMP_temperature;BMP_pressure;BME280_temperature;BME280_humidity;BME280_pressure;Samples;Min_cycle;Max_cycle;Signal;HPM_P1;HPM_P2
2022/12/19 00:01:49;;;;;;;9.20;8.30;;;15.20;45.00;16.20;101325.00;;;;5009380;28;20172;-43
2022/12/19 00:04:18;;;;;;;9.73;8.77;;;15.10;45.20;16.20;101330.00;;;;5009583;28;20200;-42
2022/12/19 00:06:44;;;;;;;9.73;8.73;;;15.10;45.20;16.20;101340.00;;;;5009657;28;20180;-42
2022/12/19 00:09:10;;;;;;;9.70;8.80;;;15.00;45.40;16.10;101319.00;;;;5009871;28;20195;-42
2022/12/19 00:11:37;;;;;;;9.40;8.53;;;15.00;45.50;16.10;101310.00;;;;5008926;28;20191;-44
2022/12/19 00:14:03;;;;;;;10.23;8.87;;;14.90;45.40;16.10;101310.00;;;;5009565;28;20282;-44
2022/12/19 00:16:29;;;;;;;11.10;8.83;;;14.90;45.50;16.00;101313.00;;;;5009270;28;20254;-43
2022/12/19 00:18:57;;;;;;;9.57;8.67;;;14.90;45.50;16.00;101301.00;;;;5008827;28;20234;-41
2022/12/19 00:21:25;;;;;;;9.37;8.47;;;14.80;45.50;16.00;101298.00;;;;5008262;28;20223;-43
2022/12/19 00:23:51;;;;;;;8.63;7.83;;;14.80;45.50;15.90;101296.00;;;;5013745;28;20211;-41
2022/12/19 00:26:18;;;;;;;9.03;8.23;;;14.90;45.70;15.90;101283.00;;;;5021000;28;20199;-41
2022/12/19 00:28:46;;;;;;;9.83;8.87;;;14.70;45.50;15.90;101301.00;;;;5020683;28;20711;-41
2022/12/19 00:31:12;;;;;;;8.73;7.87;;;14.70;45.60;15.90;101301.00;;;;5010757;28;20195;-43
2022/12/19 00:33:38;;;;;;;10.00;9.00;;;14.60;45.50;15.80;101307.00;;;;5008471;28;20241;-42
2022/12/19 00:36:07;;;;;;;9.23;8.33;;;14.70;45.60;15.80;101317.00;;;;5012652;28;20601;-42
2022/12/19 00:38:32;;;;;;;9.70;8.80;;;14.60;45.50;15.80;101308.00;;;;5010101;28;20179;-41
2022/12/19 00:41:20;;;;;;;9.50;8.57;;;14.60;45.50;15.70;101306.00;;;;5008973;28;20206;-42
2022/12/19 00:44:15;;;;;;;9.50;8.60;;;14.60;45.50;15.70;101298.00;;;;5008805;28;20201;-42
2022/12/19 00:46:41;;;;;;;9.43;8.53;;;14.60;45.50;15.70;101213.00;;;;5008681;28;20250;-43
2022/12/19 00:49:06;;;;;;;9.33;8.43;;;14.60;45.60;15.70;101284.00;;;;5008708;28;20206;-42
2022/12/19 00:51:34;;;;;;;9.03;8.13;;;14.50;45.30;15.70;101275.00;;;;5008635;28;20191;-43
2022/12/19 00:54:00;;;;;;;9.07;8.20;;;14.50;45.50;15.60;101275.00;;;;5008661;28;20179;-42
2022/12/19 00:56:28;;;;;;;9.63;8.73;;;14.40;45.70;15.60;101258.00;;;;5008551;28;20175;-44
2022/12/19 00:58:55;;;;;;;9.73;8.83;;;14.40;45.60;15.60;101268.00;;;;5008558;28;20230;-42
2022/12/19 01:01:26;;;;;;;9.20;8.30;;;14.40;45.70;15.60;101248.00;;;;5008742;28;20254;-42
2022/12/19 01:03:52;;;;;;;9.07;8.17;;;14.40;45.70;15.60;101282.00;;;;5008522;28;20206;-43
2022/12/19 01:06:17;;;;;;;9.37;8.47;;;14.30;45.50;15.50;101304.00;;;;5008605;28;20164;-42
2022/12/19 01:08:43;;;;;;;9.27;8.43;;;14.30;45.60;15.50;101302.00;;;;5008428;28;20168;-41
2022/12/19 01:11:09;;;;;;;9.30;8.40;;;14.30;45.50;15.50;101298.00;;;;5008321;28;20192;-42
2022/12/19 01:13:36;;;;;;;9.80;8.90;;;14.30;45.50;15.50;101310.00;;;;5008123;28;20226;-43
2022/12/19 01:16:10;;;;;;;9.70;8.70;;;14.20;45.40;15.40;101316.00;;;;5013952;28;20245;-42
2022/12/19 01:18:36;;;;;;;9.43;8.53;;;14.20;45.50;15.40;101294.00;;;;5027821;28;20183;-44
2022/12/19 01:21:04;;;;;;;9.03;8.17;;;14.20;45.40;15.40;101300.00;;;;5027833;28;20556;-41
2022/12/19 01:23:30;;;;;;;9.47;8.57;;;14.20;45.50;15.40;101275.00;;;;5027757;28;20508;-40
2022/12/19 01:25:56;;;;;;;9.40;8.50;;;14.10;45.40;15.30;101266.00;;;;5028039;28;20174;-41
2022/12/19 01:28:22;;;;;;;9.40;8.50;;;14.20;45.40;15.30;101260.00;;;;5026931;28;20218;-42
2022/12/19 01:30:47;;;;;;;9.27;8.37;;;14.20;45.40;15.30;101245.00;;;;5028728;28;20584;-41
2022/12/19 01:33:14;;;;;;;8.90;8.10;;;14.10;45.30;15.30;101232.00;;;;5031471;28;20677;-42
2022/12/19 01:35:40;;;;;;;9.50;8.60;;;14.10;45.40;15.30;101223.00;;;;5032052;28;20175;-41
2022/12/19 01:38:06;;;;;;;8.77;7.97;;;14.10;45.40;15.30;101223.00;;;;5031664;28;20288;-42
2022/12/19 01:40:32;;;;;;;9.10;8.27;;;14.10;45.40;15.20;101220.00;;;;5031878;28;20222;-42
2022/12/19 01:42:59;;;;;;;8.87;7.97;;;14.00;45.30;15.20;101244.00;;;;5030371;28;20581;-41
2022/12/19 01:45:31;;;;;;;9.27;8.37;;;14.00;45.30;15.20;101251.00;;;;5014302;28;20698;-42
2022/12/19 01:48:18;;;;;;;10.57;9.47;;;14.00;45.30;15.20;101252.00;;;;5031117;28;20270;-43
2022/12/19 01:51:05;;;;;;;9.07;8.17;;;13.90;45.20;15.20;101236.00;;;;5031759;28;20614;-43
2022/12/19 01:53:38;;;;;;;9.10;8.30;;;14.00;45.30;15.10;101238.00;;;;5030542;28;20159;-42
2022/12/19 01:56:05;;;;;;;8.70;7.90;;;13.90;45.20;15.10;101210.00;;;;5030227;28;20707;-41
2022/12/19 01:58:31;;;;;;;8.97;8.17;;;13.90;45.20;15.10;101220.00;;;;5013894;28;20179;-42
2022/12/19 02:00:57;;;;;;;9.50;8.60;;;14.00;45.30;15.10;101218.00;;;;5031644;28;20213;-42
2022/12/19 02:03:30;;;;;;;9.43;8.53;;;13.90;45.20;15.10;101208.00;;;;5030053;28;20244;-43
2022/12/19 02:05:56;;;;;;;9.40;8.50;;;13.90;45.20;15.10;101209.00;;;;5029957;28;20258;-42
2022/12/19 02:08:21;;;;;;;9.30;8.40;;;13.90;45.20;15.00;101216.00;;;;5030062;28;20328;-41
2022/12/19 02:10:47;;;;;;;8.83;7.93;;;13.90;45.30;15.00;101207.00;;;;5029822;28;20202;-41
2022/12/19 02:13:13;;;;;;;9.10;8.20;;;13.80;45.50;15.00;101200.00;;;;5031190;28;20841;-43
2022/12/19 02:16:22;;;;;;;9.40;8.50;;;13.70;45.40;15.00;101186.00;;;;5030152;28;20178;-40
2022/12/19 02:19:00;;;;;;;9.70;8.80;;;13.70;45.50;14.90;101183.00;;;;5030834;28;20186;-45
2022/12/19 02:21:37;;;;;;;9.27;8.33;;;13.70;45.50;14.90;101174.00;;;;5034487;28;20195;-41
2022/12/19 02:24:41;;;;;;;9.50;8.60;;;13.60;45.50;14.90;101166.00;;;;5042635;28;20306;-48
2022/12/19 02:27:36;;;;;;;8.33;7.53;;;13.70;45.70;14.80;101138.00;;;;5040511;28;20258;-41
2022/12/19 02:30:27;;;;;;;9.30;8.40;;;13.60;45.60;14.80;101151.00;;;;5029890;28;20191;-42
2022/12/19 02:33:09;;;;;;;9.60;8.60;;;13.60;45.50;14.80;101150.00;;;;5029440;28;20174;-44
2022/12/19 02:35:38;;;;;;;9.80;8.90;;;13.60;45.70;14.70;101134.00;;;;5029623;28;20171;-41
2022/12/19 02:38:09;;;;;;;8.80;8.00;;;13.60;45.70;14.80;101138.00;;;;5030868;28;20178;-41
2022/12/19 02:41:21;;;;;;;8.97;8.17;;;13.60;45.70;14.70;101127.00;;;;5029012;28;20244;-42
2022/12/19 02:43:48;;;;;;;9.50;8.57;;;13.50;45.70;14.70;101124.00;;;;5033062;28;20584;-42
2022/12/19 02:46:14;;;;;;;10.07;9.07;;;13.50;45.70;14.70;101126.00;;;;5029533;28;20579;-42
2022/12/19 02:48:39;;;;;;;9.40;8.50;;;13.50;45.70;14.60;101125.00;;;;5029280;28;20182;-42
2022/12/19 02:51:05;;;;;;;9.37;8.43;;;13.50;45.80;14.60;101135.00;;;;5029125;28;20260;-43
2022/12/19 02:53:31;;;;;;;9.27;8.37;;;13.40;45.70;14.60;101124.00;;;;5029843;28;20171;-43
2022/12/19 02:56:21;;;;;;;9.20;8.30;;;13.40;45.80;14.60;101125.00;;;;5029196;28;20179;-42
2022/12/19 02:59:33;;;;;;;10.00;9.00;;;13.40;45.90;14.60;101105.00;;;;5030488;28;20187;-41
2022/12/19 03:02:37;;;;;;;9.33;8.33;;;13.30;45.80;14.50;101109.00;;;;5024602;28;20273;-42
2022/12/19 03:05:13;;;;;;;9.20;8.30;;;13.30;45.80;14.50;101102.00;;;;5024799;28;20600;-41
2022/12/19 03:07:55;;;;;;;9.17;8.27;;;13.30;45.80;14.50;101112.00;;;;5029162;28;20691;-45
2022/12/19 03:10:43;;;;;;;9.30;8.40;;;13.40;45.90;14.50;101103.00;;;;5029287;28;20808;-42
2022/12/19 03:13:25;;;;;;;9.77;8.77;;;13.30;45.80;14.50;101104.00;;;;5030731;28;20246;-43
2022/12/19 03:15:50;;;;;;;9.23;8.33;;;13.30;45.80;14.50;101093.00;;;;5029563;28;20166;-43
2022/12/19 03:18:16;;;;;;;9.17;8.27;;;13.20;45.80;14.50;101105.00;;;;5028732;28;20182;-42
2022/12/19 03:21:08;;;;;;;9.17;8.30;;;13.20;45.80;14.40;101125.00;;;;5028934;28;20285;-43
2022/12/19 03:23:34;;;;;;;10.07;9.07;;;13.20;45.80;14.40;101123.00;;;;5029972;28;20175;-42
2022/12/19 03:26:13;;;;;;;9.43;8.53;;;13.20;45.90;14.40;101122.00;;;;5028357;28;20526;-43
2022/12/19 03:29:01;;;;;;;10.17;9.17;;;13.10;46.60;14.40;101131.00;;;;5028520;28;20606;-43
2022/12/19 03:31:29;;;;;;;9.33;8.43;;;13.20;46.00;14.40;101125.00;;;;5028406;28;20191;-41
2022/12/19 03:33:58;;;;;;;9.80;8.80;;;13.10;45.90;14.40;101095.00;;;;5028474;28;20189;-42
2022/12/19 03:36:34;;;;;;;8.93;8.13;;;13.10;46.00;14.30;101122.00;;;;5028528;28;20723;-42
2022/12/19 03:39:00;;;;;;;9.87;8.87;;;13.00;46.00;14.30;101112.00;;;;5028431;28;20167;-42
2022/12/19 03:44:10;;;;;;;9.77;8.80;;;13.10;46.10;14.30;101115.00;;;;5028474;28;20214;-42
2022/12/19 03:46:44;;;;;;;10.50;9.27;;;13.00;46.10;14.30;101090.00;;;;5028300;28;20693;-42
2022/12/19 03:49:10;;;;;;;9.77;8.77;;;13.00;46.10;14.30;101109.00;;;;5028044;28;20174;-43
2022/12/19 03:51:47;;;;;;;9.70;8.80;;;13.00;46.10;14.30;101075.00;;;;5029021;28;20219;-45
2022/12/19 03:54:24;;;;;;;9.47;8.57;;;13.00;46.20;14.20;101074.00;;;;5027079;28;20190;-43
2022/12/19 03:57:05;;;;;;;9.37;8.47;;;13.10;46.30;14.20;101075.00;;;;5029456;28;20179;-40
2022/12/19 03:59:49;;;;;;;8.97;8.17;;;13.10;46.20;14.20;101083.00;;;;5027982;28;20164;-42
2022/12/19 04:02:15;;;;;;;9.83;8.93;;;13.00;46.00;14.20;101091.00;;;;5027882;28;20195;-43
2022/12/19 04:04:45;;;;;;;9.47;8.57;;;13.00;46.40;14.20;101061.00;;;;5027630;28;20210;-42
2022/12/19 04:07:11;;;;;;;9.30;8.40;;;13.00;46.20;14.20;101065.00;;;;5028373;28;20191;-41
2022/12/19 04:09:37;;;;;;;9.47;8.50;;;13.00;46.30;14.20;101072.00;;;;5028136;28;20594;-41
2022/12/19 04:12:06;;;;;;;9.63;8.63;;;12.90;47.10;14.20;101080.00;;;;5027920;28;20187;-42
2022/12/19 04:14:34;;;;;;;10.07;9.07;;;12.90;46.60;14.10;101086.00;;;;5028905;28;20394;-42
2022/12/19 04:17:15;;;;;;;9.73;8.73;;;12.90;46.60;14.10;101058.00;;;;5027513;28;20644;-42
2022/12/19 04:19:57;;;;;;;9.87;8.87;;;12.80;46.60;14.10;101066.00;;;;5038813;28;20265;-42
2022/12/19 04:23:02;;;;;;;9.37;8.47;;;12.80;46.60;14.10;101071.00;;;;5038800;28;20167;-43
2022/12/19 04:25:35;;;;;;;9.97;8.97;;;12.80;46.80;14.00;101066.00;;;;5047509;28;20194;-43
2022/12/19 04:28:05;;;;;;;9.23;8.33;;;12.80;46.80;14.00;101069.00;;;;5027871;28;20187;-42
2022/12/19 04:30:31;;;;;;;8.93;8.03;;;12.90;47.50;14.00;101075.00;;;;5027515;28;20190;-43
2022/12/19 04:32:56;;;;;;;8.40;7.50;;;12.90;47.10;14.10;101068.00;;;;5027213;28;20183;-43
2022/12/19 04:35:22;;;;;;;10.17;7.37;;;13.10;46.80;14.10;101061.00;;;;5027747;28;20197;-41
2022/12/19 04:37:48;;;;;;;11.27;7.33;;;13.10;46.80;14.10;101063.00;;;;5029348;28;20223;-42
2022/12/19 04:40:13;;;;;;;8.57;6.77;;;13.10;46.70;14.10;101068.00;;;;5027882;28;20202;-46
2022/12/19 04:42:39;;;;;;;10.87;6.83;;;13.10;46.80;14.10;101079.00;;;;5028784;28;20602;-42
2022/12/19 04:45:05;;;;;;;8.63;6.80;;;13.20;46.80;14.20;101078.00;;;;5028338;28;20663;-43
2022/12/19 04:47:31;;;;;;;6.93;6.23;;;13.30;46.90;14.30;101076.00;;;;5029310;28;20262;-41
2022/12/19 04:49:57;;;;;;;9.20;6.47;;;13.40;46.70;14.30;101061.00;;;;5029026;28;20266;-41
2022/12/19 04:52:22;;;;;;;9.17;6.57;;;13.50;46.50;14.40;101065.00;;;;5028965;28;20171;-40
2022/12/19 04:54:48;;;;;;;9.13;6.87;;;13.60;46.30;14.50;101064.00;;;;5029169;28;20175;-41
2022/12/19 04:57:14;;;;;;;7.20;5.80;;;13.70;46.00;14.50;101078.00;;;;5028915;28;20182;-41
2022/12/19 04:59:40;;;;;;;8.07;6.07;;;13.90;45.90;14.60;101078.00;;;;5028410;28;20711;-43
2022/12/19 05:02:05;;;;;;;7.47;6.53;;;14.00;45.60;14.70;101072.00;;;;5028459;28;20432;-44
2022/12/19 05:04:31;;;;;;;8.10;6.43;;;14.20;45.50;14.80;101054.00;;;;5029186;28;20249;-41
2022/12/19 05:06:57;;;;;;;8.00;6.53;;;14.30;45.40;14.90;101055.00;;;;5029422;28;20198;-41
2022/12/19 05:09:22;;;;;;;6.57;5.97;;;14.50;45.10;15.00;101059.00;;;;5025705;28;20178;-41
2022/12/19 05:11:48;;;;;;;6.93;6.23;;;14.60;45.10;15.10;101073.00;;;;5006823;28;20179;-42
2022/12/19 05:14:14;;;;;;;7.67;5.77;;;14.70;45.10;15.20;101071.00;;;;5009593;28;20190;-43
2022/12/19 05:16:40;;;;;;;6.40;5.80;;;14.90;45.00;15.30;101059.00;;;;5009117;28;20674;-42
2022/12/19 05:19:06;;;;;;;6.90;5.60;;;15.00;44.80;15.50;101055.00;;;;5008898;28;20187;-42
2022/12/19 05:21:31;;;;;;;7.77;6.03;;;15.20;45.30;15.60;101061.00;;;;5008650;28;20392;-42
2022/12/19 05:23:57;;;;;;;7.13;6.20;;;15.30;44.60;15.70;101061.00;;;;5008644;28;20238;-41
2022/12/19 05:26:23;;;;;;;6.17;5.57;;;15.40;44.50;15.80;101055.00;;;;5008826;28;20821;-43
2022/12/19 05:28:49;;;;;;;9.23;5.83;;;15.60;44.40;15.90;101052.00;;;;5008804;28;20210;-41
2022/12/19 05:31:19;;;;;;;9.83;6.03;;;15.70;44.50;16.00;101051.00;;;;5008600;28;20218;-42
2022/12/19 05:33:45;;;;;;;8.13;5.80;;;15.70;44.40;16.10;101044.00;;;;5009041;28;20175;-41
2022/12/19 05:36:11;;;;;;;7.23;5.73;;;15.80;44.30;16.20;101051.00;;;;5009269;28;20199;-41
2022/12/19 05:38:37;;;;;;;6.00;5.40;;;15.90;44.40;16.30;101052.00;;;;5008976;28;20188;-42
2022/12/19 05:41:15;;;;;;;7.23;5.43;;;15.90;44.40;16.30;101057.00;;;;5005830;28;20276;-42
2022/12/19 05:43:42;;;;;;;7.00;5.80;;;16.00;44.50;16.40;101038.00;;;;5009367;28;20544;-42
2022/12/19 05:46:08;;;;;;;6.70;6.00;;;16.00;44.60;16.40;101043.00;;;;5009297;28;20175;-41
2022/12/19 05:48:34;;;;;;;7.73;5.70;;;16.10;44.70;16.50;101046.00;;;;5010041;28;20180;-43
2022/12/19 05:51:00;;;;;;;6.13;5.47;;;16.10;44.60;16.60;101050.00;;;;5008697;28;20245;-42
2022/12/19 05:53:27;;;;;;;6.47;5.60;;;16.20;44.80;16.60;101056.00;;;;5009228;28;20176;-41
2022/12/19 05:56:06;;;;;;;7.17;5.70;;;16.20;44.90;16.60;101056.00;;;;5008222;28;20170;-42
2022/12/19 05:58:32;;;;;;;6.20;5.00;;;16.20;44.90;16.70;101075.00;;;;5008686;28;20172;-41
2022/12/19 06:01:18;;;;;;;7.07;5.93;;;16.20;45.00;16.70;101077.00;;;;5008077;28;20198;-41
2022/12/19 06:03:44;;;;;;;7.33;5.80;;;16.20;45.10;16.80;101058.00;;;;5009509;28;20223;-41
2022/12/19 06:06:14;;;;;;;6.60;5.90;;;16.30;45.00;16.80;101069.00;;;;5008802;28;20191;-42
2022/12/19 06:08:40;;;;;;;6.53;5.50;;;16.30;45.00;16.80;101055.00;;;;5008917;28;20168;-41
2022/12/19 06:11:07;;;;;;;6.23;5.63;;;16.20;45.40;16.80;101065.00;;;;5009519;28;20742;-41
2022/12/19 06:13:32;;;;;;;6.60;5.43;;;16.30;45.60;16.90;101068.00;;;;5009165;28;20561;-43
2022/12/19 06:16:02;;;;;;;6.37;5.27;;;16.40;45.60;16.90;101064.00;;;;5008297;28;20160;-42
2022/12/19 06:18:28;;;;;;;5.70;5.13;;;16.40;45.60;16.90;101061.00;;;;5012000;28;20185;-42
2022/12/19 06:21:02;;;;;;;5.97;5.27;;;16.40;45.50;17.00;101048.00;;;;5012938;28;20192;-42
2022/12/19 06:23:33;;;;;;;6.10;5.20;;;16.40;45.50;17.00;101043.00;;;;5011940;28;20177;-43
2022/12/19 06:25:59;;;;;;;5.87;5.27;;;16.40;45.50;17.00;101042.00;;;;5013241;28;20247;-41
2022/12/19 06:28:26;;;;;;;5.00;4.50;;;16.40;45.70;17.00;101037.00;;;;5012441;28;20181;-42
2022/12/19 06:30:54;;;;;;;5.20;4.70;;;16.40;45.80;17.00;101039.00;;;;5011709;28;20189;-42
2022/12/19 06:33:19;;;;;;;6.70;4.90;;;16.30;45.80;17.00;101040.00;;;;5012071;28;20258;-42
2022/12/19 06:35:45;;;;;;;5.13;4.63;;;16.30;45.90;17.00;101040.00;;;;5012657;28;20263;-42
2022/12/19 06:38:11;;;;;;;5.13;4.30;;;16.30;45.90;17.00;101040.00;;;;5013916;28;20762;-42
2022/12/19 06:43:28;;;;;;;5.57;4.90;;;16.40;46.00;17.00;101058.00;;;;5013391;28;20171;-42
2022/12/19 06:45:55;;;;;;;5.03;4.60;;;16.40;45.90;17.00;101053.00;;;;5011888;28;20175;-41
2022/12/19 06:48:21;;;;;;;4.90;4.40;;;16.40;45.90;17.00;101050.00;;;;5012679;28;20182;-41
2022/12/19 06:50:47;;;;;;;5.10;4.60;;;16.40;46.00;17.00;101050.00;;;;5012638;28;20184;-41
2022/12/19 06:53:12;;;;;;;5.07;4.57;;;16.40;46.00;17.10;101056.00;;;;5026086;28;20179;-41
2022/12/19 06:55:38;;;;;;;4.53;4.13;;;16.40;46.00;17.10;101051.00;;;;5031186;28;20183;-51
2022/12/19 06:58:04;;;;;;;4.33;3.93;;;16.40;46.00;17.10;101035.00;;;;5030528;28;20182;-43
2022/12/19 07:00:30;;;;;;;4.60;4.20;;;16.50;46.00;17.10;100983.00;;;;5011518;28;20196;-43
2022/12/19 07:02:55;;;;;;;4.67;4.27;;;16.50;46.10;17.10;101042.00;;;;5012081;28;20177;-43
2022/12/19 07:05:21;;;;;;;4.57;4.17;;;16.50;46.10;17.10;101056.00;;;;5011865;28;20212;-42
2022/12/19 07:07:47;;;;;;;4.63;4.23;;;16.40;46.00;17.10;101061.00;;;;5012822;28;20179;-41
2022/12/19 07:10:13;;;;;;;4.80;4.40;;;16.40;46.10;17.10;101060.00;;;;5011681;28;20200;-44
2022/12/19 07:12:38;;;;;;;4.60;4.20;;;16.40;46.20;17.10;101063.00;;;;5012049;28;20172;-44
2022/12/19 07:15:05;;;;;;;4.50;4.10;;;16.50;46.20;17.10;101054.00;;;;5011663;28;20213;-43
2022/12/19 07:17:30;;;;;;;4.67;4.27;;;16.50;46.20;17.10;101069.00;;;;5011634;28;20257;-42
2022/12/19 07:19:56;;;;;;;4.30;3.90;;;16.50;46.20;17.10;101060.00;;;;5011395;28;20207;-42
2022/12/19 07:22:23;;;;;;;5.47;4.00;;;16.50;46.20;17.10;101073.00;;;;5011795;28;20191;-43
2022/12/19 07:24:49;;;;;;;4.27;3.97;;;16.50;46.30;17.10;101065.00;;;;5010625;28;20195;-42
2022/12/19 07:27:14;;;;;;;4.50;4.10;;;16.50;46.20;17.10;101076.00;;;;5011248;28;20259;-42
2022/12/19 07:29:40;;;;;;;4.67;4.20;;;16.60;46.30;17.20;101070.00;;;;5011215;28;20818;-41
2022/12/19 07:32:06;;;;;;;4.60;4.20;;;16.50;46.10;17.20;101058.00;;;;5011607;28;20183;-41
2022/12/19 07:34:31;;;;;;;4.57;4.17;;;16.50;46.20;17.20;101055.00;;;;5011747;28;20182;-42
2022/12/19 07:36:57;;;;;;;4.43;4.07;;;16.50;46.20;17.20;101069.00;;;;5011510;28;20180;-42
2022/12/19 07:39:23;;;;;;;4.63;4.23;;;16.50;46.40;17.20;101074.00;;;;5010543;28;20172;-42
2022/12/19 07:41:49;;;;;;;4.70;4.30;;;16.50;46.40;17.20;101072.00;;;;5011159;28;20241;-42
2022/12/19 07:44:15;;;;;;;4.53;4.13;;;16.50;46.40;17.20;101073.00;;;;5011415;28;20199;-42
2022/12/19 07:46:41;;;;;;;4.50;4.10;;;16.50;46.40;17.20;101073.00;;;;5011832;28;20171;-42
2022/12/19 07:49:07;;;;;;;4.13;3.83;;;16.50;46.40;17.20;101061.00;;;;5010920;28;20204;-41
2022/12/19 07:51:33;;;;;;;4.27;3.87;;;16.50;46.40;17.20;101067.00;;;;5011072;28;20227;-42
2022/12/19 07:53:59;;;;;;;4.20;3.80;;;16.50;46.40;17.20;101066.00;;;;5011033;28;20230;-42
2022/12/19 07:56:24;;;;;;;4.10;3.80;;;16.50;46.40;17.20;101056.00;;;;5011362;28;20187;-41
2022/12/19 07:58:51;;;;;;;3.90;3.60;;;16.50;46.50;17.20;101066.00;;;;5010769;28;20175;-42
2022/12/19 08:01:16;;;;;;;4.10;3.70;;;16.50;46.50;17.20;101056.00;;;;5010961;28;20805;-41
2022/12/19 08:03:42;;;;;;;4.00;3.70;;;16.50;46.60;17.20;101065.00;;;;5010914;28;20176;-43
2022/12/19 08:06:08;;;;;;;4.10;3.80;;;16.50;46.60;17.20;101065.00;;;;5011245;28;20230;-43
2022/12/19 08:08:34;;;;;;;4.20;3.80;;;16.50;46.60;17.20;101064.00;;;;5010555;28;20299;-42
2022/12/19 08:11:26;;;;;;;4.27;3.87;;;16.50;46.50;17.30;101070.00;;;;5011419;28;20196;-43
2022/12/19 08:13:52;;;;;;;4.00;3.70;;;16.50;46.50;17.20;101064.00;;;;5009695;28;20618;-42
2022/12/19 08:16:18;;;;;;;3.90;3.60;;;16.50;46.50;17.20;101057.00;;;;5011073;28;20184;-42
2022/12/19 08:18:44;;;;;;;4.37;3.97;;;16.60;46.60;17.30;101056.00;;;;5009924;28;20270;-42
2022/12/19 08:21:10;;;;;;;4.10;3.80;;;16.60;46.60;17.30;101058.00;;;;5011068;28;20768;-43
2022/12/19 08:23:37;;;;;;;4.00;3.70;;;16.60;46.70;17.30;101055.00;;;;5011214;28;20189;-42
2022/12/19 08:26:12;;;;;;;3.73;3.43;;;16.60;46.60;17.30;101054.00;;;;5011311;28;20309;-43
2022/12/19 08:28:38;;;;;;;3.90;3.60;;;16.60;46.70;17.30;101060.00;;;;5009975;28;20699;-43
2022/12/19 08:31:10;;;;;;;4.00;3.70;;;16.60;46.70;17.30;101060.00;;;;5010860;28;20673;-43
2022/12/19 08:33:36;;;;;;;4.00;3.70;;;16.50;46.70;17.30;101075.00;;;;5010685;28;20177;-42
2022/12/19 08:36:10;;;;;;;3.93;3.63;;;16.50;46.70;17.30;101073.00;;;;5010814;28;20176;-41
2022/12/19 08:38:36;;;;;;;4.00;3.70;;;16.50;46.80;17.30;101075.00;;;;5009870;28;20179;-42
2022/12/19 08:41:02;;;;;;;4.00;3.70;;;16.50;46.80;17.30;101086.00;;;;5009926;28;20598;-43
2022/12/19 08:43:29;;;;;;;3.90;3.60;;;16.50;46.70;17.10;101083.00;;;;5010005;28;20207;-42
2022/12/19 08:45:55;;;;;;;3.90;3.60;;;16.50;46.80;17.30;101084.00;;;;5010602;28;20190;-44
2022/12/19 08:48:21;;;;;;;4.00;3.70;;;16.60;46.80;17.30;101090.00;;;;5009891;28;20171;-42
2022/12/19 08:50:51;;;;;;;4.30;3.90;;;16.50;46.70;17.30;101076.00;;;;5021464;28;20194;-41
2022/12/19 08:53:16;;;;;;;3.80;3.50;;;16.50;46.80;17.30;101068.00;;;;5027576;28;20518;-40
2022/12/19 08:55:42;;;;;;;4.20;3.80;;;16.50;46.90;17.30;101077.00;;;;5024915;28;20174;-42
2022/12/19 08:58:08;;;;;;;4.30;3.90;;;16.60;47.00;17.30;101069.00;;;;5010245;28;20180;-41
2022/12/19 09:00:33;;;;;;;4.37;3.97;;;16.50;46.90;17.30;101075.00;;;;5009890;28;20613;-42
2022/12/19 09:02:59;;;;;;;3.67;3.37;;;16.60;47.00;17.30;101079.00;;;;5010206;28;20181;-41
2022/12/19 09:05:25;;;;;;;3.77;3.47;;;16.50;46.90;17.30;101074.00;;;;5010308;28;20209;-41
2022/12/19 09:07:50;;;;;;;3.77;3.47;;;16.50;47.00;17.30;101055.00;;;;5020758;28;20183;-42
2022/12/19 09:10:16;;;;;;;4.90;3.50;;;16.50;47.10;17.30;101060.00;;;;5027987;28;20710;-41
2022/12/19 09:12:42;;;;;;;3.67;3.37;;;16.50;47.30;17.30;101046.00;;;;5028668;28;20167;-42
2022/12/19 09:15:08;;;;;;;3.70;3.40;;;16.50;47.30;17.30;101059.00;;;;5017542;28;20199;-41
2022/12/19 09:17:34;;;;;;;4.00;3.70;;;16.50;47.30;17.30;101058.00;;;;5028313;28;20225;-42
2022/12/19 09:19:59;;;;;;;4.10;3.70;;;16.60;47.30;17.30;101051.00;;;;5031118;28;20213;-41
2022/12/19 09:22:25;;;;;;;4.17;3.77;;;16.60;47.50;17.30;100985.00;;;;5029693;28;20607;-41
2022/12/19 09:24:51;;;;;;;4.07;3.70;;;16.60;47.40;17.30;101046.00;;;;5029693;28;20215;-41
2022/12/19 09:27:16;;;;;;;3.70;3.40;;;16.60;47.50;17.30;101044.00;;;;5030063;28;20180;-42
2022/12/19 09:29:43;;;;;;;6.03;3.70;;;16.60;47.50;17.30;101046.00;;;;5029488;28;20202;-42
2022/12/19 09:32:08;;;;;;;7.13;3.97;;;16.50;48.20;17.30;101032.00;;;;5029732;28;20172;-43
2022/12/19 09:34:35;;;;;;;4.93;4.00;;;16.50;48.80;17.30;101049.00;;;;5029652;28;20298;-42
2022/12/19 09:37:01;;;;;;;5.53;3.77;;;16.60;48.40;17.30;101044.00;;;;5029421;28;20726;-42
2022/12/19 09:39:26;;;;;;;7.03;3.93;;;16.60;48.30;17.40;101050.00;;;;5028991;28;20167;-42
2022/12/19 09:42:08;;;;;;;5.07;3.90;;;16.60;48.20;17.40;101045.00;;;;5028782;28;20342;-44
2022/12/19 09:45:04;;;;;;;4.30;3.90;;;16.60;48.20;17.40;101024.00;;;;5027878;28;20692;-42
2022/12/19 09:47:30;;;;;;;4.10;3.70;;;16.60;48.20;17.30;101038.00;;;;5028561;28;20602;-42
2022/12/19 09:49:57;;;;;;;4.07;3.77;;;16.60;48.20;17.30;101024.00;;;;4997609;28;20689;-42
2022/12/19 09:52:37;;;;;;;4.20;3.80;;;16.50;48.20;17.30;100992.00;;;;4992083;28;20206;-42
2022/12/19 09:55:39;;;;;;;6.40;4.00;;;16.50;48.20;17.30;100998.00;;;;4977606;28;20183;-43
2022/12/19 09:58:23;;;;;;;4.10;3.70;;;16.60;48.30;17.30;101027.00;;;;4876424;28;20192;-43
2022/12/19 10:00:53;;;;;;;4.13;3.73;;;16.60;48.20;17.30;101047.00;;;;5019004;28;20195;-41
2022/12/19 10:03:33;;;;;;;4.33;3.87;;;16.60;48.10;17.40;101046.00;;;;5012298;28;20639;-43
2022/12/19 10:06:19;;;;;;;3.93;3.60;;;16.60;48.10;17.30;101057.00;;;;5017839;28;20171;-42
2022/12/19 10:08:45;;;;;;;3.73;3.43;;;16.60;48.00;17.40;101039.00;;;;5026249;28;20169;-42
2022/12/19 10:11:14;;;;;;;3.90;3.60;;;16.60;48.10;17.40;101058.00;;;;5011504;28;20257;-42
2022/12/19 10:14:04;;;;;;;3.70;3.40;;;16.60;48.10;17.40;101052.00;;;;5009533;28;20232;-42
2022/12/19 10:17:12;;;;;;;3.80;3.50;;;16.60;48.00;17.40;101055.00;;;;5012594;28;20571;-42
2022/12/19 10:20:15;;;;;;;3.90;3.50;;;16.60;47.90;17.40;101067.00;;;;5012020;28;20228;-42
2022/12/19 10:22:50;;;;;;;4.10;3.70;;;16.60;47.90;17.40;101061.00;;;;5011763;28;20554;-42
2022/12/19 10:25:58;;;;;;;4.23;3.83;;;16.60;48.00;17.40;101058.00;;;;5011839;28;20682;-41
2022/12/19 10:28:53;;;;;;;4.20;3.87;;;16.60;48.20;17.40;101048.00;;;;5026216;28;20669;-42
2022/12/19 10:31:57;;;;;;;3.93;3.57;;;16.60;48.30;17.40;101048.00;;;;5011312;28;20184;-42
2022/12/19 10:34:28;;;;;;;4.57;3.60;;;16.60;48.50;17.40;101033.00;;;;5011237;28;20266;-44
2022/12/19 10:37:01;;;;;;;3.97;3.60;;;16.60;48.50;17.40;101051.00;;;;5009805;28;20172;-41
2022/12/19 10:39:31;;;;;;;4.90;3.80;;;16.60;48.50;17.40;101037.00;;;;5009998;28;20176;-43
2022/12/19 10:42:26;;;;;;;4.90;3.60;;;16.60;48.50;17.40;101042.00;;;;5011857;28;20156;-49
2022/12/19 10:44:52;;;;;;;5.50;3.80;;;16.60;48.80;17.40;101035.00;;;;5020384;28;20195;-42
2022/12/19 10:47:18;;;;;;;6.10;3.80;;;16.60;48.90;17.40;101032.00;;;;5020377;28;20173;-42
2022/12/19 10:49:44;;;;;;;6.07;3.70;;;16.70;48.90;17.40;101034.00;;;;5023489;28;20194;-42
2022/12/19 10:52:10;;;;;;;7.07;4.00;;;16.70;49.00;17.40;101033.00;;;;5017532;28;20172;-42
2022/12/19 10:54:38;;;;;;;5.30;3.87;;;16.70;49.10;17.40;101028.00;;;;5044191;28;20179;-42
2022/12/19 10:57:24;;;;;;;7.40;3.90;;;16.70;49.20;17.50;101022.00;;;;4982837;28;20187;-42
2022/12/19 11:00:04;;;;;;;9.13;4.13;;;16.60;49.20;17.40;101016.00;;;;5011800;28;20208;-41
2022/12/19 11:02:37;;;;;;;9.63;3.87;;;16.60;49.20;17.40;101019.00;;;;5011675;28;20872;-42
2022/12/19 11:05:22;;;;;;;5.40;4.00;;;16.70;49.40;17.50;101032.00;;;;5012473;28;20187;-42
2022/12/19 11:08:07;;;;;;;7.27;3.83;;;16.60;49.40;17.50;101026.00;;;;5011899;28;20175;-43
2022/12/19 11:10:51;;;;;;;8.53;4.00;;;16.60;49.60;17.40;101034.00;;;;5012876;28;20189;-42